No particular awareness of the weather is required.    There are no Weather-warnings


Meteo18 Weather Cam more information Meteo18 Weather Cam


Thunder radar more information blitzortung!


Rain radar more information rain snow radar


Visit our other weather sites:

Template documentation
and downloads

And another site



Weather Underground History page Text

Daily Summary for August 2, 2016 Units:  Metric    English   Both
« Previous Day
Next Day »
Daily Weekly Monthly Yearly Custom
  High: Low: Average:
Temperature: 22.3 °C 15.6 °C 19.2 °C
Dew Point: 15.9 °C 11.8 °C 14 °C
Humidity: 79 % 64 % 72 %
Wind Speed: 24.1 km/h 0.0 km/h 7.7 km/h
Wind Gust: 29.0 km/h - -
Wind:- - SW
Pressure: 1019.9 hPa 1017.8 hPa -
Precipitation: 0.0 mm    
Historical Graphs
 
 
Tabular Data for August 2, 2016
Time Temperature Dew Point Pressure Wind Wind Speed Wind Gust Humidity Rainfall Rate (Hourly)
00:02 17.3 °C 12.4 °C 1019.2 hPa Calm   1.6 km/h 73 % 0.0 mm
00:12 17.3 °C 12.2 °C 1019.2 hPa Calm   1.6 km/h 72 % 0.0 mm
00:17 17.3 °C 12.2 °C 1018.8 hPa Calm     72 % 0.0 mm
00:22 17.3 °C 12.2 °C 1018.8 hPa Calm     72 % 0.0 mm
00:27 17.2 °C 12.3 °C 1018.8 hPa Calm     73 % 0.0 mm
00:32 17.2 °C 12.5 °C 1018.8 hPa Calm     74 % 0.0 mm
00:42 17.1 °C 12.2 °C 1018.8 hPa Calm     73 % 0.0 mm
00:47 16.9 °C 12.2 °C 1018.8 hPa Calm     74 % 0.0 mm
00:52 16.9 °C 12.4 °C 1018.8 hPa Calm     75 % 0.0 mm
00:57 16.8 °C 12.3 °C 1018.8 hPa Calm     75 % 0.0 mm
01:02 16.9 °C 12.6 °C 1018.8 hPa Calm     76 % 0.0 mm
01:12 16.8 °C 12.5 °C 1018.8 hPa Calm     76 % 0.0 mm
01:17 16.7 °C 12.2 °C 1018.8 hPa Calm   1.6 km/h 75 % 0.0 mm
01:22 16.7 °C 12.4 °C 1018.8 hPa Calm   1.6 km/h 76 % 0.0 mm
01:32 16.8 °C 12.3 °C 1018.8 hPa Calm     75 % 0.0 mm
01:37 16.7 °C 12.2 °C 1018.8 hPa Calm     75 % 0.0 mm
01:42 16.7 °C 12.2 °C 1018.8 hPa Calm     75 % 0.0 mm
01:47 16.6 °C 11.9 °C 1018.8 hPa Calm     74 % 0.0 mm
01:52 16.4 °C 12.0 °C 1018.8 hPa Calm     75 % 0.0 mm
01:57 16.3 °C 11.9 °C 1018.8 hPa Calm     75 % 0.0 mm
02:02 16.3 °C 12.1 °C 1018.8 hPa Calm     76 % 0.0 mm
02:07 16.3 °C 12.3 °C 1018.8 hPa Calm     77 % 0.0 mm
02:12 16.3 °C 12.3 °C 1018.8 hPa Calm     77 % 0.0 mm
02:17 16.4 °C 12.4 °C 1018.5 hPa Calm     77 % 0.0 mm
02:22 16.3 °C 12.3 °C 1018.8 hPa Calm     77 % 0.0 mm
02:27 16.3 °C 12.3 °C 1018.8 hPa Calm     77 % 0.0 mm
02:32 16.3 °C 12.5 °C 1018.8 hPa Calm     78 % 0.0 mm
02:42 16.2 °C 12.4 °C 1018.8 hPa Calm     78 % 0.0 mm
02:47 16.3 °C 12.5 °C 1018.5 hPa Calm     78 % 0.0 mm
02:52 16.2 °C 12.4 °C 1018.5 hPa Calm     78 % 0.0 mm
02:57 16.1 °C 12.3 °C 1018.8 hPa Calm     78 % 0.0 mm
03:02 15.9 °C 12.3 °C 1018.5 hPa Calm     79 % 0.0 mm
03:12 15.7 °C 12.1 °C 1018.8 hPa Calm     79 % 0.0 mm
03:17 15.7 °C 12.1 °C 1018.8 hPa Calm     79 % 0.0 mm
03:22 15.6 °C 12.0 °C 1018.8 hPa Calm     79 % 0.0 mm
03:27 15.7 °C 12.1 °C 1018.8 hPa SW 1.6 km/h 3.2 km/h 79 % 0.0 mm
03:32 15.9 °C 11.9 °C 1018.8 hPa SW 4.8 km/h 4.8 km/h 77 % 0.0 mm
03:42 17.6 °C 11.8 °C 1018.5 hPa SW 6.4 km/h 12.9 km/h 69 % 0.0 mm
03:47 17.9 °C 11.9 °C 1018.5 hPa South 3.2 km/h 12.9 km/h 68 % 0.0 mm
03:52 17.9 °C 11.9 °C 1018.5 hPa SW 6.4 km/h 12.9 km/h 68 % 0.0 mm
03:57 17.9 °C 11.9 °C 1018.5 hPa South 4.8 km/h 9.7 km/h 68 % 0.0 mm
04:02 17.8 °C 12.0 °C 1018.5 hPa SSW 4.8 km/h 8.0 km/h 69 % 0.0 mm
04:07 17.6 °C 11.8 °C 1018.5 hPa SW 3.2 km/h 8.0 km/h 69 % 0.0 mm
04:12 17.6 °C 12.1 °C 1018.5 hPa SSW 1.6 km/h 9.7 km/h 70 % 0.0 mm
04:17 17.4 °C 11.9 °C 1018.5 hPa WSW 4.8 km/h 9.7 km/h 70 % 0.0 mm
04:22 17.4 °C 11.9 °C 1018.5 hPa SSW 3.2 km/h 9.7 km/h 70 % 0.0 mm
04:27 17.4 °C 11.9 °C 1018.5 hPa SW 1.6 km/h 9.7 km/h 70 % 0.0 mm
04:32 17.3 °C 12.0 °C 1018.5 hPa WSW 6.4 km/h 9.7 km/h 71 % 0.0 mm
04:37 17.3 °C 12.0 °C 1018.2 hPa SW 4.8 km/h 9.7 km/h 71 % 0.0 mm
04:42 17.3 °C 12.0 °C 1018.5 hPa WSW 3.2 km/h 9.7 km/h 71 % 0.0 mm
04:47 17.3 °C 12.0 °C 1018.5 hPa WSW 6.4 km/h 9.7 km/h 71 % 0.0 mm
04:52 17.3 °C 12.0 °C 1018.5 hPa WSW 4.8 km/h 9.7 km/h 71 % 0.0 mm
04:57 17.3 °C 12.0 °C 1018.2 hPa WSW 3.2 km/h 9.7 km/h 71 % 0.0 mm
05:12 17.2 °C 12.1 °C 1018.5 hPa SW 3.2 km/h 4.8 km/h 72 % 0.0 mm
05:22 16.9 °C 12.0 °C 1018.5 hPa SSW 3.2 km/h 4.8 km/h 73 % 0.0 mm
05:27 16.9 °C 12.0 °C 1018.5 hPa SW 1.6 km/h 4.8 km/h 73 % 0.0 mm
05:32 16.8 °C 12.1 °C 1018.5 hPa SW 1.6 km/h 4.8 km/h 74 % 0.0 mm
05:42 16.7 °C 12.2 °C 1018.5 hPa SW 3.2 km/h 6.4 km/h 75 % 0.0 mm
05:47 16.6 °C 12.1 °C 1018.5 hPa SSW 3.2 km/h 6.4 km/h 75 % 0.0 mm
05:52 16.6 °C 12.1 °C 1018.5 hPa SW 3.2 km/h 8.0 km/h 75 % 0.0 mm
05:57 16.5 °C 12.3 °C 1018.5 hPa SW 4.8 km/h 8.0 km/h 76 % 0.0 mm
06:02 16.5 °C 12.3 °C 1018.5 hPa SSW 6.4 km/h 8.0 km/h 76 % 0.0 mm
06:07 16.4 °C 12.2 °C 1018.5 hPa SSW 3.2 km/h 8.0 km/h 76 % 0.0 mm
06:12 16.3 °C 12.3 °C 1018.5 hPa SSW 8.0 km/h 8.0 km/h 77 % 0.0 mm
06:17 16.3 °C 12.3 °C 1018.5 hPa SW 4.8 km/h 14.5 km/h 77 % 0.0 mm
06:22 16.3 °C 12.3 °C 1018.5 hPa SW 8.0 km/h 16.1 km/h 77 % 0.0 mm
06:27 16.3 °C 12.3 °C 1018.5 hPa West 8.0 km/h 16.1 km/h 77 % 0.0 mm
06:37 16.3 °C 12.3 °C 1018.5 hPa SE 4.8 km/h 19.3 km/h 77 % 0.0 mm
06:42 16.3 °C 12.3 °C 1018.8 hPa SW 12.9 km/h 19.3 km/h 77 % 0.0 mm
06:47 16.2 °C 12.2 °C 1018.8 hPa WSW 12.9 km/h 14.5 km/h 77 % 0.0 mm
06:57 16.1 °C 12.3 °C 1018.8 hPa SSW 6.4 km/h 12.9 km/h 78 % 0.0 mm
07:02 16.1 °C 12.1 °C 1018.8 hPa SSW 6.4 km/h 14.5 km/h 77 % 0.0 mm
07:07 16.1 °C 12.1 °C 1018.8 hPa SSW 8.0 km/h 14.5 km/h 77 % 0.0 mm
07:12 16.1 °C 12.1 °C 1018.8 hPa West 11.3 km/h 16.1 km/h 77 % 0.0 mm
07:17 16.1 °C 12.3 °C 1018.8 hPa WSW 12.9 km/h 19.3 km/h 78 % 0.0 mm
07:22 16.1 °C 12.3 °C 1018.8 hPa SW 8.0 km/h 19.3 km/h 78 % 0.0 mm
07:27 16.2 °C 12.4 °C 1018.8 hPa SW 12.9 km/h 19.3 km/h 78 % 0.0 mm
07:32 16.2 °C 12.4 °C 1018.8 hPa WSW 11.3 km/h 17.7 km/h 78 % 0.0 mm
07:37 16.2 °C 12.4 °C 1018.8 hPa SW 4.8 km/h 17.7 km/h 78 % 0.0 mm
07:42 16.2 °C 12.4 °C 1019.2 hPa WSW 9.7 km/h 19.3 km/h 78 % 0.0 mm
07:47 16.3 °C 12.5 °C 1019.2 hPa SSW 9.7 km/h 19.3 km/h 78 % 0.0 mm
07:52 16.3 °C 12.5 °C 1019.2 hPa SW 9.7 km/h 19.3 km/h 78 % 0.0 mm
07:57 16.2 °C 12.4 °C 1019.2 hPa SW 3.2 km/h 19.3 km/h 78 % 0.0 mm
08:02 16.2 °C 12.4 °C 1019.2 hPa SW 6.4 km/h 19.3 km/h 78 % 0.0 mm
08:07 16.3 °C 12.7 °C 1019.2 hPa SW 14.5 km/h 17.7 km/h 79 % 0.0 mm
08:12 16.3 °C 12.7 °C 1019.2 hPa SW 6.4 km/h 19.3 km/h 79 % 0.0 mm
08:17 16.3 °C 12.7 °C 1019.2 hPa SSW 9.7 km/h 19.3 km/h 79 % 0.0 mm
08:22 16.4 °C 12.7 °C 1019.2 hPa WSW 6.4 km/h 19.3 km/h 79 % 0.0 mm
08:32 16.4 °C 12.7 °C 1019.2 hPa WSW 8.0 km/h 19.3 km/h 79 % 0.0 mm
08:37 16.6 °C 12.9 °C 1019.2 hPa SSW 8.0 km/h 19.3 km/h 79 % 0.0 mm
08:42 16.7 °C 12.8 °C 1019.2 hPa SSW 4.8 km/h 17.7 km/h 78 % 0.0 mm
08:47 16.8 °C 12.9 °C 1019.5 hPa SW 9.7 km/h 16.1 km/h 78 % 0.0 mm
08:57 16.9 °C 12.8 °C 1019.5 hPa WSW 9.7 km/h 16.1 km/h 77 % 0.0 mm
09:02 16.9 °C 12.8 °C 1019.5 hPa SSW 12.9 km/h 20.9 km/h 77 % 0.0 mm
09:07 17.0 °C 12.9 °C 1019.5 hPa WSW 12.9 km/h 20.9 km/h 77 % 0.0 mm
09:12 17.1 °C 13.0 °C 1019.5 hPa WSW 14.5 km/h 22.5 km/h 77 % 0.0 mm
09:17 17.2 °C 13.1 °C 1019.5 hPa WSW 12.9 km/h 22.5 km/h 77 % 0.0 mm
09:22 17.4 °C 13.1 °C 1019.5 hPa SW 11.3 km/h 22.5 km/h 76 % 0.0 mm
09:32 17.7 °C 13.4 °C 1019.5 hPa WSW 9.7 km/h 24.1 km/h 76 % 0.0 mm
09:37 17.7 °C 13.4 °C 1019.5 hPa WSW 11.3 km/h 24.1 km/h 76 % 0.0 mm
09:42 17.7 °C 13.4 °C 1019.5 hPa WSW 9.7 km/h 22.5 km/h 76 % 0.0 mm
09:47 17.8 °C 13.5 °C 1019.5 hPa WSW 16.1 km/h 22.5 km/h 76 % 0.0 mm
09:52 17.9 °C 13.6 °C 1019.5 hPa WNW 4.8 km/h 24.1 km/h 76 % 0.0 mm
09:57 18.1 °C 13.8 °C 1019.5 hPa SW 19.3 km/h 24.1 km/h 76 % 0.0 mm
10:02 18.2 °C 13.7 °C 1019.5 hPa SW 8.0 km/h 24.1 km/h 75 % 0.0 mm
10:12 18.8 °C 14.3 °C 1019.5 hPa SSW 6.4 km/h 22.5 km/h 75 % 0.0 mm
10:17 18.7 °C 14.0 °C 1019.5 hPa West 16.1 km/h 22.5 km/h 74 % 0.0 mm
10:22 18.7 °C 14.0 °C 1019.5 hPa SSW 12.9 km/h 20.9 km/h 74 % 0.0 mm
10:27 18.6 °C 14.1 °C 1019.5 hPa WSW 8.0 km/h 20.9 km/h 75 % 0.0 mm
10:32 18.6 °C 14.1 °C 1019.5 hPa WSW 11.3 km/h 20.9 km/h 75 % 0.0 mm
10:37 18.8 °C 14.3 °C 1019.5 hPa WSW 16.1 km/h 20.9 km/h 75 % 0.0 mm
10:42 19.1 °C 14.6 °C 1019.5 hPa West 9.7 km/h 19.3 km/h 75 % 0.0 mm
10:47 18.9 °C 14.2 °C 1019.5 hPa SW 16.1 km/h 19.3 km/h 74 % 0.0 mm
10:57 19.1 °C 14.6 °C 1019.5 hPa SW 11.3 km/h 20.9 km/h 75 % 0.0 mm
11:02 19.2 °C 14.7 °C 1019.5 hPa SW 14.5 km/h 22.5 km/h 75 % 0.0 mm
11:07 19.1 °C 14.4 °C 1019.5 hPa SW 9.7 km/h 22.5 km/h 74 % 0.0 mm
11:12 18.9 °C 14.4 °C 1019.5 hPa SSW 16.1 km/h 24.1 km/h 75 % 0.0 mm
11:17 18.9 °C 14.6 °C 1019.5 hPa WSW 16.1 km/h 24.1 km/h 76 % 0.0 mm
11:22 19.1 °C 14.6 °C 1019.5 hPa WSW 8.0 km/h 24.1 km/h 75 % 0.0 mm
11:27 19.0 °C 14.5 °C 1019.5 hPa SW 17.7 km/h 24.1 km/h 75 % 0.0 mm
11:32 19.0 °C 14.7 °C 1019.5 hPa SSW 8.0 km/h 24.1 km/h 76 % 0.0 mm
11:37 19.0 °C 14.7 °C 1019.5 hPa West 9.7 km/h 25.7 km/h 76 % 0.0 mm
11:42 19.3 °C 14.8 °C 1019.5 hPa SW 14.5 km/h 25.7 km/h 75 % 0.0 mm
11:47 19.3 °C 14.8 °C 1019.9 hPa SW 19.3 km/h 25.7 km/h 75 % 0.0 mm
11:52 19.5 °C 14.9 °C 1019.5 hPa West 8.0 km/h 25.7 km/h 75 % 0.0 mm
11:57 19.6 °C 15.0 °C 1019.5 hPa WSW 11.3 km/h 25.7 km/h 75 % 0.0 mm
12:02 19.6 °C 15.0 °C 1019.5 hPa WSW 14.5 km/h 25.7 km/h 75 % 0.0 mm
12:07 19.7 °C 15.1 °C 1019.5 hPa WSW 16.1 km/h 22.5 km/h 75 % 0.0 mm
12:12 19.7 °C 15.1 °C 1019.5 hPa West 4.8 km/h 25.7 km/h 75 % 0.0 mm
12:17 19.7 °C 14.9 °C 1019.5 hPa SW 16.1 km/h 27.4 km/h 74 % 0.0 mm
12:22 19.8 °C 15.0 °C 1019.5 hPa SSW 12.9 km/h 27.4 km/h 74 % 0.0 mm
12:27 19.7 °C 14.9 °C 1019.5 hPa SW 14.5 km/h 27.4 km/h 74 % 0.0 mm
12:32 19.8 °C 15.2 °C 1019.5 hPa SW 9.7 km/h 25.7 km/h 75 % 0.0 mm
12:37 20.0 °C 15.2 °C 1019.5 hPa WSW 14.5 km/h 25.7 km/h 74 % 0.0 mm
12:42 20.1 °C 15.1 °C 1019.5 hPa SW 24.1 km/h 29.0 km/h 73 % 0.0 mm
12:47 20.2 °C 15.2 °C 1019.5 hPa SW 14.5 km/h 29.0 km/h 73 % 0.0 mm
12:52 20.5 °C 15.3 °C 1019.5 hPa WSW 22.5 km/h 29.0 km/h 72 % 0.0 mm
12:57 20.6 °C 15.4 °C 1019.2 hPa WSW 11.3 km/h 27.4 km/h 72 % 0.0 mm
13:02 20.6 °C 15.2 °C 1019.2 hPa WNW 14.5 km/h 27.4 km/h 71 % 0.0 mm
13:07 20.8 °C 15.3 °C 1019.2 hPa West 8.0 km/h 27.4 km/h 71 % 0.0 mm
13:12 20.9 °C 15.4 °C 1019.2 hPa West 14.5 km/h 25.7 km/h 71 % 0.0 mm
13:17 20.8 °C 15.3 °C 1019.2 hPa WSW 6.4 km/h 25.7 km/h 71 % 0.0 mm
13:27 20.8 °C 15.3 °C 1019.2 hPa SSE 11.3 km/h 25.7 km/h 71 % 0.0 mm
13:32 20.8 °C 15.3 °C 1019.5 hPa SSW 12.9 km/h 24.1 km/h 71 % 0.0 mm
13:37 20.8 °C 15.3 °C 1019.5 hPa SSW 9.7 km/h 27.4 km/h 71 % 0.0 mm
13:47 20.9 °C 15.2 °C 1019.2 hPa WNW 17.7 km/h 27.4 km/h 70 % 0.0 mm
13:52 21.1 °C 15.4 °C 1019.2 hPa SSW 11.3 km/h 27.4 km/h 70 % 0.0 mm
13:57 21.1 °C 15.2 °C 1019.2 hPa WSW 9.7 km/h 27.4 km/h 69 % 0.0 mm
14:02 21.2 °C 15.3 °C 1019.2 hPa WSW 14.5 km/h 25.7 km/h 69 % 0.0 mm
14:07 21.3 °C 15.4 °C 1019.5 hPa WSW 11.3 km/h 25.7 km/h 69 % 0.0 mm
14:12 21.3 °C 15.4 °C 1019.5 hPa SSW 9.7 km/h 27.4 km/h 69 % 0.0 mm
14:17 21.5 °C 15.6 °C 1019.5 hPa WSW 9.7 km/h 27.4 km/h 69 % 0.0 mm
14:22 21.4 °C 15.2 °C 1019.2 hPa SW 14.5 km/h 25.7 km/h 68 % 0.0 mm
14:27 21.3 °C 15.2 °C 1019.5 hPa SW 8.0 km/h 25.7 km/h 68 % 0.0 mm
14:32 21.3 °C 15.2 °C 1019.2 hPa WNW 16.1 km/h 25.7 km/h 68 % 0.0 mm
14:37 21.4 °C 15.2 °C 1019.2 hPa West 9.7 km/h 25.7 km/h 68 % 0.0 mm
14:42 21.6 °C 15.4 °C 1019.2 hPa WSW 6.4 km/h 27.4 km/h 68 % 0.0 mm
14:47 21.6 °C 15.4 °C 1019.2 hPa West 14.5 km/h 27.4 km/h 68 % 0.0 mm
14:52 21.6 °C 15.4 °C 1019.5 hPa WSW 12.9 km/h 22.5 km/h 68 % 0.0 mm
14:57 21.4 °C 15.2 °C 1019.5 hPa SW 19.3 km/h 22.5 km/h 68 % 0.0 mm
15:02 21.5 °C 15.3 °C 1019.2 hPa SW 4.8 km/h 22.5 km/h 68 % 0.0 mm
15:07 21.6 °C 15.4 °C 1019.2 hPa WSW 11.3 km/h 20.9 km/h 68 % 0.0 mm
15:12 21.5 °C 15.3 °C 1019.5 hPa SW 19.3 km/h 22.5 km/h 68 % 0.0 mm
15:17 21.6 °C 15.7 °C 1019.5 hPa SSW 6.4 km/h 22.5 km/h 69 % 0.0 mm
15:22 21.5 °C 15.3 °C 1019.5 hPa SW 8.0 km/h 22.5 km/h 68 % 0.0 mm
15:32 21.3 °C 15.2 °C 1019.5 hPa WSW 8.0 km/h 24.1 km/h 68 % 0.0 mm
15:37 21.4 °C 15.2 °C 1019.5 hPa WNW 14.5 km/h 24.1 km/h 68 % 0.0 mm
15:42 21.3 °C 15.2 °C 1019.5 hPa SW 9.7 km/h 24.1 km/h 68 % 0.0 mm
15:52 21.2 °C 15.3 °C 1019.5 hPa West 12.9 km/h 24.1 km/h 69 % 0.0 mm
15:57 21.3 °C 15.4 °C 1019.5 hPa WSW 6.4 km/h 19.3 km/h 69 % 0.0 mm
16:02 21.4 °C 15.2 °C 1019.5 hPa WSW 11.3 km/h 25.7 km/h 68 % 0.0 mm
16:12 21.4 °C 15.0 °C 1019.2 hPa West 16.1 km/h 22.5 km/h 67 % 0.0 mm
16:17 21.4 °C 15.2 °C 1019.2 hPa SW 14.5 km/h 24.1 km/h 68 % 0.0 mm
16:22 21.3 °C 15.4 °C 1019.2 hPa West 20.9 km/h 24.1 km/h 69 % 0.0 mm
16:27 21.3 °C 15.4 °C 1019.2 hPa SW 6.4 km/h 24.1 km/h 69 % 0.0 mm
16:32 21.3 °C 15.4 °C 1019.2 hPa West 9.7 km/h 27.4 km/h 69 % 0.0 mm
16:37 21.2 °C 15.3 °C 1019.2 hPa SW 19.3 km/h 27.4 km/h 69 % 0.0 mm
16:42 21.2 °C 15.3 °C 1019.2 hPa South 9.7 km/h 25.7 km/h 69 % 0.0 mm
16:47 21.3 °C 15.4 °C 1019.2 hPa SSW 11.3 km/h 25.7 km/h 69 % 0.0 mm
16:52 21.2 °C 15.5 °C 1019.2 hPa WSW 16.1 km/h 25.7 km/h 70 % 0.0 mm
16:57 21.2 °C 15.5 °C 1018.8 hPa SW 8.0 km/h 17.7 km/h 70 % 0.0 mm
17:02 21.3 °C 15.4 °C 1018.8 hPa WSW 6.4 km/h 22.5 km/h 69 % 0.0 mm
17:07 21.4 °C 15.5 °C 1018.8 hPa West 14.5 km/h 22.5 km/h 69 % 0.0 mm
17:12 21.3 °C 15.4 °C 1018.8 hPa SW 1.6 km/h 27.4 km/h 69 % 0.0 mm
17:17 21.4 °C 15.5 °C 1018.8 hPa WSW 8.0 km/h 27.4 km/h 69 % 0.0 mm
17:22 21.4 °C 15.5 °C 1018.8 hPa SW 17.7 km/h 20.9 km/h 69 % 0.0 mm
17:27 21.3 °C 15.4 °C 1018.8 hPa SW 17.7 km/h 17.7 km/h 69 % 0.0 mm
17:32 21.3 °C 15.4 °C 1018.8 hPa WSW 9.7 km/h 24.1 km/h 69 % 0.0 mm
17:37 21.3 °C 15.6 °C 1018.8 hPa WSW 17.7 km/h 24.1 km/h 70 % 0.0 mm
17:42 21.4 °C 15.5 °C 1018.8 hPa SW 16.1 km/h 24.1 km/h 69 % 0.0 mm
17:47 21.6 °C 15.9 °C 1018.5 hPa WSW 8.0 km/h 22.5 km/h 70 % 0.0 mm
17:52 21.7 °C 15.8 °C 1018.5 hPa WSW 11.3 km/h 22.5 km/h 69 % 0.0 mm
17:57 21.7 °C 15.5 °C 1018.5 hPa WSW 9.7 km/h 22.5 km/h 68 % 0.0 mm
18:02 21.8 °C 15.6 °C 1018.5 hPa SW 9.7 km/h 20.9 km/h 68 % 0.0 mm
18:07 21.8 °C 15.6 °C 1018.5 hPa WSW 11.3 km/h 20.9 km/h 68 % 0.0 mm
18:12 21.8 °C 15.6 °C 1018.5 hPa SW 16.1 km/h 20.9 km/h 68 % 0.0 mm
18:17 21.8 °C 15.6 °C 1018.5 hPa SSW 9.7 km/h 20.9 km/h 68 % 0.0 mm
18:22 21.8 °C 15.6 °C 1018.5 hPa WSW 9.7 km/h 19.3 km/h 68 % 0.0 mm
18:27 21.8 °C 15.6 °C 1018.5 hPa SSW 9.7 km/h 22.5 km/h 68 % 0.0 mm
18:32 21.9 °C 15.7 °C 1018.5 hPa SW 9.7 km/h 22.5 km/h 68 % 0.0 mm
18:37 22.0 °C 15.8 °C 1018.5 hPa SW 6.4 km/h 22.5 km/h 68 % 0.0 mm
18:42 22.1 °C 15.7 °C 1018.5 hPa WNW 9.7 km/h 19.3 km/h 67 % 0.0 mm
18:47 22.1 °C 15.7 °C 1018.5 hPa West 12.9 km/h 16.1 km/h 67 % 0.0 mm
18:52 22.1 °C 15.7 °C 1018.2 hPa WSW 4.8 km/h 17.7 km/h 67 % 0.0 mm
18:57 22.2 °C 15.5 °C 1018.2 hPa WSW 6.4 km/h 17.7 km/h 66 % 0.0 mm
19:02 22.3 °C 15.6 °C 1018.2 hPa WSW 4.8 km/h 19.3 km/h 66 % 0.0 mm
19:07 22.2 °C 15.5 °C 1018.2 hPa SW 6.4 km/h 19.3 km/h 66 % 0.0 mm
19:12 22.2 °C 15.5 °C 1018.2 hPa SW 6.4 km/h 17.7 km/h 66 % 0.0 mm
19:17 22.2 °C 15.5 °C 1018.2 hPa West 4.8 km/h 17.7 km/h 66 % 0.0 mm
19:27 22.2 °C 15.3 °C 1018.2 hPa WSW 11.3 km/h 17.7 km/h 65 % 0.0 mm
19:32 22.2 °C 15.3 °C 1018.2 hPa SW 9.7 km/h 17.7 km/h 65 % 0.0 mm
19:37 22.2 °C 15.3 °C 1018.2 hPa West 6.4 km/h 17.7 km/h 65 % 0.0 mm
19:42 22.2 °C 15.3 °C 1017.8 hPa West 8.0 km/h 17.7 km/h 65 % 0.0 mm
19:47 22.2 °C 15.3 °C 1018.2 hPa WSW 3.2 km/h 12.9 km/h 65 % 0.0 mm
19:52 22.2 °C 15.3 °C 1017.8 hPa SW 3.2 km/h 11.3 km/h 65 % 0.0 mm
19:57 22.2 °C 15.3 °C 1017.8 hPa SW 9.7 km/h 17.7 km/h 65 % 0.0 mm
20:02 22.1 °C 15.2 °C 1018.2 hPa SW 8.0 km/h 17.7 km/h 65 % 0.0 mm
20:07 22.1 °C 15.2 °C 1017.8 hPa SW 8.0 km/h 17.7 km/h 65 % 0.0 mm
20:12 22.1 °C 15.2 °C 1017.8 hPa SW 1.6 km/h 14.5 km/h 65 % 0.0 mm
20:17 22.1 °C 15.2 °C 1017.8 hPa SW 8.0 km/h 11.3 km/h 65 % 0.0 mm
20:22 22.1 °C 15.2 °C 1017.8 hPa SSW 4.8 km/h 12.9 km/h 65 % 0.0 mm
20:32 22.1 °C 15.2 °C 1017.8 hPa SSW 3.2 km/h 12.9 km/h 65 % 0.0 mm
20:42 22.1 °C 15.0 °C 1017.8 hPa SSW 6.4 km/h 11.3 km/h 64 % 0.0 mm
20:47 22.1 °C 15.0 °C 1017.8 hPa SW 4.8 km/h 11.3 km/h 64 % 0.0 mm
20:52 22.1 °C 15.0 °C 1017.8 hPa SSW 3.2 km/h 11.3 km/h 64 % 0.0 mm
20:57 22.1 °C 15.0 °C 1017.8 hPa SW 6.4 km/h 11.3 km/h 64 % 0.0 mm
21:02 22.1 °C 15.0 °C 1017.8 hPa SW 3.2 km/h 11.3 km/h 64 % 0.0 mm
21:07 22.1 °C 15.0 °C 1017.8 hPa SW 4.8 km/h 11.3 km/h 64 % 0.0 mm
21:12 22.1 °C 15.0 °C 1017.8 hPa SSW 4.8 km/h 11.3 km/h 64 % 0.0 mm
21:17 22.1 °C 15.2 °C 1017.8 hPa SSW 3.2 km/h 11.3 km/h 65 % 0.0 mm
21:27 21.9 °C 15.0 °C 1017.8 hPa SSW 3.2 km/h 9.7 km/h 65 % 0.0 mm
21:32 21.9 °C 15.0 °C 1017.8 hPa SW 4.8 km/h 9.7 km/h 65 % 0.0 mm
21:37 21.8 °C 14.9 °C 1017.8 hPa SSW 4.8 km/h 8.0 km/h 65 % 0.0 mm
21:42 21.7 °C 14.8 °C 1018.2 hPa SSW 3.2 km/h 8.0 km/h 65 % 0.0 mm
21:47 21.6 °C 15.0 °C 1017.8 hPa SSW 3.2 km/h 8.0 km/h 66 % 0.0 mm
21:52 21.5 °C 14.9 °C 1018.2 hPa SSW 1.6 km/h 11.3 km/h 66 % 0.0 mm
21:57 21.4 °C 14.8 °C 1018.2 hPa SW 3.2 km/h 11.3 km/h 66 % 0.0 mm
22:02 21.3 °C 14.9 °C 1018.2 hPa SW 9.7 km/h 11.3 km/h 67 % 0.0 mm
22:12 21.3 °C 14.9 °C 1018.2 hPa SW 9.7 km/h 12.9 km/h 67 % 0.0 mm
22:17 21.3 °C 14.7 °C 1018.2 hPa SSW 3.2 km/h 14.5 km/h 66 % 0.0 mm
22:22 21.2 °C 14.8 °C 1018.2 hPa SW 8.0 km/h 14.5 km/h 67 % 0.0 mm
22:27 21.1 °C 14.7 °C 1018.2 hPa WSW 4.8 km/h 14.5 km/h 67 % 0.0 mm
22:32 21.1 °C 14.7 °C 1018.2 hPa SW 6.4 km/h 11.3 km/h 67 % 0.0 mm
22:37 21.1 °C 14.7 °C 1018.2 hPa SSW 4.8 km/h 11.3 km/h 67 % 0.0 mm
22:42 20.9 °C 14.5 °C 1018.2 hPa SSW 1.6 km/h 12.9 km/h 67 % 0.0 mm
22:47 20.7 °C 14.6 °C 1018.2 hPa SSW 6.4 km/h 12.9 km/h 68 % 0.0 mm
22:57 20.1 °C 14.5 °C 1018.2 hPa SW 3.2 km/h 11.3 km/h 70 % 0.0 mm
23:02 19.9 °C 14.3 °C 1018.2 hPa SSW 3.2 km/h 11.3 km/h 70 % 0.0 mm
23:07 19.8 °C 14.2 °C 1018.2 hPa SSW 3.2 km/h 6.4 km/h 70 % 0.0 mm
23:12 19.8 °C 14.4 °C 1018.5 hPa SW 3.2 km/h 6.4 km/h 71 % 0.0 mm
23:17 19.8 °C 14.4 °C 1018.2 hPa SW 4.8 km/h 8.0 km/h 71 % 0.0 mm
23:22 19.8 °C 14.2 °C 1018.2 hPa SW 6.4 km/h 9.7 km/h 70 % 0.0 mm
23:32 19.8 °C 14.4 °C 1018.2 hPa SSW 4.8 km/h 9.7 km/h 71 % 0.0 mm
23:37 19.7 °C 14.3 °C 1018.2 hPa SW 4.8 km/h 9.7 km/h 71 % 0.0 mm
23:42 19.6 °C 14.2 °C 1018.2 hPa SW 3.2 km/h 9.7 km/h 71 % 0.0 mm
23:47 19.6 °C 14.2 °C 1018.2 hPa SSW 3.2 km/h 9.7 km/h 71 % 0.0 mm
23:57 18.9 °C 14.0 °C 1018.2 hPa SSW 1.6 km/h 8.0 km/h 73 % 0.0 mm
Meteo18
Compliments of Weather Underground - 4 mb

Script developed by  Jim McMurry - jmcmurry@mwt.net Adapted for the template by  Wim van der Kuil - Leuven-Template.eu

You find our weather info also at:

European Weather Network

Weather Underground

Equipment we use:

Weather-station
Davis Vue

Weather-program
Meteohub

Weather-server
Raspberry PI 2 B+

Provider
1 and 1

Davis Vue

Meteohub

Raspberry PI 2 B+

1 and 1